createdAt,value
2022-08-12T00:02:02.724Z,20.80
2022-08-12T00:04:45.338Z,20.70
2022-08-12T00:07:30.741Z,20.70
2022-08-12T00:10:16.248Z,20.70
2022-08-12T00:13:01.895Z,20.70
2022-08-12T00:15:48.078Z,20.70
2022-08-12T00:18:36.193Z,20.70
2022-08-12T00:21:22.035Z,20.70
2022-08-12T00:24:08.585Z,20.70
2022-08-12T00:26:54.772Z,20.70
2022-08-12T00:29:42.601Z,20.60
2022-08-12T00:32:35.427Z,20.60
2022-08-12T00:35:23.564Z,20.60
2022-08-12T00:38:14.227Z,20.60
2022-08-12T00:41:01.089Z,20.50
2022-08-12T00:43:28.637Z,20.50
2022-08-12T00:46:14.615Z,20.50
2022-08-12T00:48:42.005Z,20.50
2022-08-12T00:51:09.361Z,20.40
2022-08-12T00:53:37.242Z,20.40
2022-08-12T00:56:04.957Z,20.40
2022-08-12T00:58:32.717Z,20.40
2022-08-12T01:01:05.435Z,20.30
2022-08-12T01:03:59.596Z,20.30
2022-08-12T01:06:45.903Z,20.30
2022-08-12T01:09:37.697Z,20.30
2022-08-12T01:12:05.866Z,20.30
2022-08-12T01:14:32.838Z,20.20
2022-08-12T01:16:59.757Z,20.20
2022-08-12T01:19:26.623Z,20.20
2022-08-12T01:21:56.148Z,20.20
2022-08-12T01:24:31.096Z,20.20
2022-08-12T01:26:59.502Z,20.10
2022-08-12T01:29:32.881Z,20.20
2022-08-12T01:32:03.390Z,20.20
2022-08-12T01:34:37.594Z,20.10
2022-08-12T01:37:05.350Z,20.10
2022-08-12T01:39:33.197Z,20.10
2022-08-12T01:42:04.815Z,20.10
2022-08-12T01:44:32.649Z,20.10
2022-08-12T01:47:11.802Z,20.00
2022-08-12T01:49:56.454Z,20.00
2022-08-12T01:52:35.709Z,20.00
2022-08-12T01:55:03.061Z,20.00
2022-08-12T01:57:59.733Z,19.90
2022-08-12T02:00:43.363Z,19.90
2022-08-12T02:03:12.067Z,19.90
2022-08-12T02:06:06.382Z,19.90
2022-08-12T02:08:56.579Z,19.80
2022-08-12T02:11:29.346Z,19.80
2022-08-12T02:14:02.165Z,19.80
2022-08-12T02:16:47.669Z,19.80
2022-08-12T02:19:27.609Z,19.80
2022-08-12T02:22:07.262Z,19.80
2022-08-12T02:24:34.469Z,19.70
2022-08-12T02:27:02.780Z,19.70
2022-08-12T02:29:29.645Z,19.60
2022-08-12T02:31:57.422Z,19.60
2022-08-12T02:34:24.400Z,19.60
2022-08-12T02:36:54.127Z,19.60
2022-08-12T02:39:23.138Z,19.60
2022-08-12T02:41:52.363Z,19.50
2022-08-12T02:44:19.868Z,19.50
2022-08-12T02:46:49.611Z,19.50
2022-08-12T02:49:19.772Z,19.50
2022-08-12T02:51:46.632Z,19.50
2022-08-12T02:54:13.642Z,19.50
2022-08-12T02:56:41.230Z,19.40
2022-08-12T02:59:12.043Z,19.40
2022-08-12T03:01:48.043Z,19.40
2022-08-12T03:04:29.951Z,19.40
2022-08-12T03:07:10.842Z,19.30
2022-08-12T03:09:56.741Z,19.30
2022-08-12T03:12:32.721Z,19.30
2022-08-12T03:15:02.782Z,19.20
2022-08-12T03:17:31.437Z,19.20
2022-08-12T03:20:08.815Z,19.20
2022-08-12T03:22:40.675Z,19.10
2022-08-12T03:25:12.402Z,19.10
2022-08-12T03:27:51.602Z,19.10
2022-08-12T03:30:19.637Z,19.10
2022-08-12T03:32:47.753Z,19.10
2022-08-12T03:35:39.998Z,19.10
2022-08-12T03:38:08.069Z,19.10
2022-08-12T03:41:01.199Z,19.00
2022-08-12T03:43:49.697Z,19.00
2022-08-12T03:46:51.136Z,19.00
2022-08-12T03:49:37.691Z,19.00
2022-08-12T03:52:23.512Z,18.90
2022-08-12T03:55:09.104Z,18.90
2022-08-12T03:57:56.481Z,18.90
2022-08-12T04:00:26.204Z,18.90
2022-08-12T04:03:01.475Z,18.90
2022-08-12T04:05:54.694Z,18.90
2022-08-12T04:08:17.284Z,18.90
2022-08-12T04:11:02.882Z,18.90
2022-08-12T04:13:29.963Z,18.80
2022-08-12T04:15:57.653Z,18.80
2022-08-12T04:18:25.099Z,18.80
2022-08-12T04:20:52.375Z,18.80
2022-08-12T04:23:19.430Z,18.80
2022-08-12T04:25:46.254Z,18.80
2022-08-12T04:28:13.880Z,18.80
2022-08-12T04:30:40.940Z,18.80
2022-08-12T04:33:12.774Z,18.80
2022-08-12T04:35:39.698Z,18.80
2022-08-12T04:38:07.373Z,18.80
2022-08-12T04:40:36.501Z,18.80
2022-08-12T04:43:03.765Z,18.80
2022-08-12T04:45:31.448Z,18.80
2022-08-12T04:47:58.410Z,18.80
2022-08-12T04:50:34.059Z,18.80
2022-08-12T04:53:04.613Z,18.80
2022-08-12T04:55:31.681Z,18.80
2022-08-12T04:58:00.462Z,18.80
2022-08-12T05:00:27.723Z,18.90
2022-08-12T05:02:54.940Z,18.90
2022-08-12T05:05:23.069Z,18.90
2022-08-12T05:07:54.783Z,19.00
2022-08-12T05:10:33.124Z,19.00
2022-08-12T05:13:02.469Z,19.10
2022-08-12T05:15:30.346Z,19.10
2022-08-12T05:18:00.155Z,19.10
2022-08-12T05:20:29.635Z,19.10
2022-08-12T05:23:13.115Z,19.20
2022-08-12T05:25:43.258Z,19.20
2022-08-12T05:28:10.745Z,19.30
2022-08-12T05:30:37.500Z,19.30
2022-08-12T05:33:07.588Z,19.40
2022-08-12T05:35:41.824Z,19.40
2022-08-12T05:38:27.981Z,19.50
2022-08-12T05:40:55.230Z,19.50
2022-08-12T05:43:22.328Z,19.60
2022-08-12T05:45:49.692Z,19.70
2022-08-12T05:48:16.753Z,19.70
2022-08-12T05:50:43.918Z,19.80
2022-08-12T05:53:10.978Z,19.90
2022-08-12T05:55:38.261Z,20.00
2022-08-12T05:58:05.079Z,20.10
2022-08-12T06:00:32.802Z,20.20
2022-08-12T06:03:02.700Z,20.20
2022-08-12T06:05:30.574Z,20.30
2022-08-12T06:08:01.285Z,20.40
2022-08-12T06:10:32.562Z,20.40
2022-08-12T06:13:00.473Z,20.50
2022-08-12T06:15:27.308Z,20.50
2022-08-12T06:17:54.269Z,20.60
2022-08-12T06:20:27.839Z,20.80
2022-08-12T06:22:56.940Z,20.80
2022-08-12T06:25:27.800Z,20.90
2022-08-12T06:28:06.114Z,20.90
2022-08-12T06:30:38.518Z,21.00
2022-08-12T06:33:24.518Z,21.10
2022-08-12T06:35:57.725Z,21.20
2022-08-12T06:38:26.457Z,21.30
2022-08-12T06:41:15.864Z,21.30
2022-08-12T06:44:06.802Z,21.40
2022-08-12T06:46:33.179Z,21.50
2022-08-12T06:49:00.082Z,21.60
2022-08-12T06:51:28.108Z,21.70
2022-08-12T06:53:55.965Z,21.80
2022-08-12T06:56:34.677Z,21.90
2022-08-12T06:59:11.223Z,22.00
2022-08-12T07:01:38.535Z,22.10
2022-08-12T07:04:33.386Z,22.30
2022-08-12T07:06:52.204Z,22.40
2022-08-12T07:10:01.525Z,22.50
2022-08-12T07:12:05.898Z,22.60
2022-08-12T07:14:33.855Z,22.60
2022-08-12T07:17:03.413Z,22.70
2022-08-12T07:19:44.978Z,22.70
2022-08-12T07:22:13.946Z,22.80
2022-08-12T07:24:40.913Z,22.80
2022-08-12T07:27:07.680Z,22.80
2022-08-12T07:29:57.924Z,22.80
2022-08-12T07:32:24.517Z,22.80
2022-08-12T07:34:54.645Z,22.90
2022-08-12T07:37:21.528Z,23.00
2022-08-12T07:39:50.907Z,23.00
2022-08-12T07:42:27.138Z,23.10
2022-08-12T07:44:53.902Z,23.20
2022-08-12T07:47:20.719Z,23.30
2022-08-12T07:50:04.774Z,23.30
2022-08-12T07:52:42.554Z,23.50
2022-08-12T07:55:10.292Z,23.50
2022-08-12T07:57:48.298Z,23.60
2022-08-12T08:00:15.433Z,23.70
2022-08-12T08:02:42.254Z,23.80
2022-08-12T08:05:09.196Z,23.90
2022-08-12T08:07:35.962Z,24.00
2022-08-12T08:10:06.824Z,24.10
2022-08-12T08:12:52.370Z,24.20
2022-08-12T08:15:20.200Z,24.30
2022-08-12T08:17:57.780Z,24.30
2022-08-12T08:20:28.552Z,24.40
2022-08-12T08:22:58.504Z,24.50
2022-08-12T08:25:35.984Z,24.60
2022-08-12T08:28:17.066Z,24.70
2022-08-12T08:30:45.524Z,24.80
2022-08-12T08:33:24.759Z,24.80
2022-08-12T08:36:00.773Z,24.90
2022-08-12T08:38:33.360Z,25.00
2022-08-12T08:42:15.752Z,25.00
2022-08-12T08:44:10.897Z,25.20
2022-08-12T08:46:38.823Z,25.20
2022-08-12T08:49:05.958Z,25.30
2022-08-12T08:51:32.822Z,25.50
2022-08-12T08:53:59.601Z,25.60
2022-08-12T08:56:27.235Z,25.70
2022-08-12T08:58:54.055Z,25.80
2022-08-12T09:01:21.658Z,25.90
2022-08-12T09:05:08.963Z,26.00
2022-08-12T09:06:37.769Z,26.10
2022-08-12T09:09:12.806Z,26.20
2022-08-12T09:12:10.983Z,26.30
2022-08-12T09:14:46.797Z,26.30
2022-08-12T09:20:09.444Z,26.60
2022-08-12T09:22:37.701Z,26.80
2022-08-12T09:25:07.039Z,26.90
2022-08-12T09:27:57.863Z,27.00
2022-08-12T09:30:41.213Z,27.10
2022-08-12T09:33:18.240Z,27.20
2022-08-12T09:35:46.913Z,27.40
2022-08-12T09:38:32.022Z,27.60
2022-08-12T09:42:09.825Z,28.00
2022-08-12T09:44:05.682Z,28.40
2022-08-12T09:46:34.654Z,28.80
2022-08-12T09:49:04.181Z,29.30
2022-08-12T09:51:43.721Z,29.70
2022-08-12T09:54:32.686Z,30.00
2022-08-12T09:57:03.753Z,30.50
2022-08-12T10:00:16.222Z,31.00
2022-08-12T10:02:44.630Z,31.40
2022-08-12T10:05:17.588Z,31.80
2022-08-12T10:07:47.053Z,32.10
2022-08-12T10:10:25.182Z,32.40
2022-08-12T10:13:35.099Z,32.70
2022-08-12T10:16:05.186Z,33.20
2022-08-12T10:18:35.288Z,33.40
2022-08-12T10:21:07.342Z,33.50
2022-08-12T10:23:40.132Z,33.60
2022-08-12T10:26:37.254Z,33.90
2022-08-12T10:30:38.642Z,34.10
2022-08-12T10:32:56.329Z,34.50
2022-08-12T10:35:07.530Z,34.90
2022-08-12T10:38:35.974Z,35.10
2022-08-12T10:40:28.750Z,35.20
2022-08-12T10:43:17.168Z,35.50
2022-08-12T10:45:45.996Z,35.80
2022-08-12T10:48:20.986Z,36.00
2022-08-12T10:51:00.872Z,36.00
2022-08-12T10:53:45.883Z,36.30
2022-08-12T10:56:16.990Z,36.70
2022-08-12T10:58:47.941Z,36.70
2022-08-12T11:03:01.597Z,36.80
2022-08-12T11:04:24.519Z,37.00
2022-08-12T11:07:09.013Z,37.20
2022-08-12T11:09:51.226Z,37.40
2022-08-12T11:12:54.697Z,37.50
2022-08-12T11:15:19.443Z,37.60
2022-08-12T11:17:54.564Z,37.80
2022-08-12T11:20:24.013Z,38.00
2022-08-12T11:22:59.615Z,38.30
2022-08-12T11:25:56.044Z,38.70
2022-08-12T11:28:13.892Z,39.30
2022-08-12T11:30:41.382Z,39.70
2022-08-12T11:33:12.281Z,39.60
2022-08-12T11:35:54.046Z,39.30
2022-08-12T11:38:24.472Z,39.20
2022-08-12T11:40:51.711Z,38.90
2022-08-12T11:43:19.640Z,38.70
2022-08-12T11:45:47.712Z,38.70
2022-08-12T11:48:20.482Z,38.70
2022-08-12T11:50:54.365Z,38.40
2022-08-12T11:53:58.376Z,38.00
2022-08-12T11:58:33.890Z,37.80
2022-08-12T12:03:07.237Z,38.40
2022-08-12T12:05:41.843Z,38.60
2022-08-12T12:08:37.945Z,38.70
2022-08-12T12:11:09.610Z,39.10
2022-08-12T12:14:07.709Z,39.40
2022-08-12T12:16:23.438Z,39.50
2022-08-12T12:18:51.709Z,39.50
2022-08-12T12:21:18.744Z,39.40
2022-08-12T12:24:06.298Z,39.50
2022-08-12T12:26:35.614Z,39.30
2022-08-12T12:29:04.447Z,39.30
2022-08-12T12:32:10.307Z,39.30
2022-08-12T12:34:30.258Z,39.30
2022-08-12T12:36:58.090Z,39.70
2022-08-12T12:39:27.893Z,39.80
2022-08-12T12:42:42.888Z,39.90
2022-08-12T12:44:50.746Z,39.90
2022-08-12T12:47:30.086Z,40.10
2022-08-12T12:49:57.157Z,40.00
2022-08-12T12:52:26.780Z,40.00
2022-08-12T12:54:57.492Z,40.10
2022-08-12T12:57:36.459Z,40.60
2022-08-12T13:00:17.691Z,40.80
2022-08-12T13:02:53.582Z,40.80
2022-08-12T13:05:27.541Z,40.70
2022-08-12T13:08:01.341Z,40.80
2022-08-12T13:10:36.689Z,41.00
2022-08-12T13:14:07.604Z,41.00
2022-08-12T13:15:53.900Z,40.60
2022-08-12T13:18:31.492Z,40.30
2022-08-12T13:20:59.581Z,40.00
2022-08-12T13:23:35.726Z,39.90
2022-08-12T13:26:04.358Z,40.10
2022-08-12T13:28:32.183Z,40.10
2022-08-12T13:31:00.494Z,40.20
2022-08-12T13:33:29.267Z,40.00
2022-08-12T13:36:18.193Z,39.70
2022-08-12T13:38:54.363Z,39.30
2022-08-12T13:41:34.130Z,39.10
2022-08-12T13:44:02.353Z,38.60
2022-08-12T13:46:29.276Z,38.20
2022-08-12T13:48:56.628Z,38.10
2022-08-12T13:51:24.798Z,38.00
2022-08-12T13:54:11.555Z,37.90
2022-08-12T13:56:39.041Z,37.80
2022-08-12T13:59:09.500Z,37.80
2022-08-12T14:01:40.284Z,37.80
2022-08-12T14:04:11.852Z,37.80
2022-08-12T14:06:40.057Z,37.90
2022-08-12T14:09:17.913Z,38.00
2022-08-12T14:11:58.455Z,38.00
2022-08-12T14:14:31.441Z,38.00
2022-08-12T14:17:05.641Z,37.80
2022-08-12T14:19:39.272Z,37.70
2022-08-12T14:22:17.386Z,37.60
2022-08-12T14:24:46.180Z,37.50
2022-08-12T14:27:14.063Z,37.50
2022-08-12T14:30:15.985Z,37.30
2022-08-12T14:32:48.715Z,37.20
2022-08-12T14:35:15.625Z,37.00
2022-08-12T14:37:57.016Z,36.90
2022-08-12T14:40:29.061Z,36.80
2022-08-12T14:42:58.396Z,36.90
2022-08-12T14:45:44.506Z,36.80
2022-08-12T14:48:15.754Z,36.60
2022-08-12T14:51:02.800Z,36.50
2022-08-12T14:57:05.976Z,36.60
2022-08-12T14:59:26.575Z,36.60
2022-08-12T15:02:20.856Z,36.70
2022-08-12T15:04:55.938Z,36.60
2022-08-12T15:07:33.406Z,36.40
2022-08-12T15:10:10.276Z,36.20
2022-08-12T15:12:40.762Z,35.80
2022-08-12T15:15:10.339Z,35.50
2022-08-12T15:17:38.701Z,35.60
2022-08-12T15:20:27.930Z,35.70
2022-08-12T15:22:57.929Z,36.00
2022-08-12T15:25:25.772Z,36.20
2022-08-12T15:28:05.619Z,36.60
2022-08-12T15:30:35.513Z,37.00
2022-08-12T15:33:12.909Z,37.60
2022-08-12T15:35:53.199Z,38.10
2022-08-12T15:38:25.289Z,38.50
2022-08-12T15:40:53.525Z,38.90
2022-08-12T15:43:51.170Z,38.80
2022-08-12T15:46:15.903Z,38.60
2022-08-12T15:48:47.096Z,38.40
2022-08-12T15:51:58.566Z,37.40
2022-08-12T15:54:34.428Z,36.40
2022-08-12T15:57:08.330Z,35.40
2022-08-12T16:00:00.564Z,34.70
2022-08-12T16:02:26.621Z,34.30
2022-08-12T16:04:54.379Z,33.90
2022-08-12T16:07:30.168Z,33.60
2022-08-12T16:10:06.267Z,33.40
2022-08-12T16:12:43.305Z,33.30
2022-08-12T16:15:21.557Z,33.20
2022-08-12T16:18:25.961Z,33.00
2022-08-12T16:20:36.980Z,32.90
2022-08-12T16:23:35.988Z,32.70
2022-08-12T16:26:05.446Z,32.60
2022-08-12T16:28:37.512Z,32.50
2022-08-12T16:31:05.632Z,32.40
2022-08-12T16:34:00.672Z,32.30
2022-08-12T16:36:25.506Z,32.30
2022-08-12T16:38:52.757Z,32.20
2022-08-12T16:41:19.712Z,32.10
2022-08-12T16:43:46.777Z,32.00
2022-08-12T16:46:31.532Z,31.90
2022-08-12T16:49:04.334Z,31.70
2022-08-12T16:51:40.572Z,31.60
2022-08-12T16:54:13.987Z,31.50
2022-08-12T16:56:55.231Z,31.50
2022-08-12T16:59:30.774Z,31.60
2022-08-12T17:01:58.690Z,31.70
2022-08-12T17:04:27.543Z,31.70
2022-08-12T17:06:54.680Z,31.70
2022-08-12T17:09:21.855Z,31.60
2022-08-12T17:11:49.521Z,31.60
2022-08-12T17:14:23.091Z,31.60
2022-08-12T17:16:52.026Z,31.50
2022-08-12T17:19:20.584Z,31.50
2022-08-12T17:22:09.753Z,31.40
2022-08-12T17:24:44.009Z,31.30
2022-08-12T17:27:21.730Z,31.20
2022-08-12T17:30:02.770Z,31.10
2022-08-12T17:32:33.696Z,31.10
2022-08-12T17:35:20.922Z,31.00
2022-08-12T17:37:48.665Z,30.90
2022-08-12T17:40:34.747Z,30.80
2022-08-12T17:43:56.901Z,30.80
2022-08-12T17:45:56.373Z,30.70
2022-08-12T17:48:35.085Z,30.60
2022-08-12T17:51:15.969Z,30.50
2022-08-12T17:54:06.127Z,30.40
2022-08-12T17:56:39.458Z,30.30
2022-08-12T17:59:07.690Z,30.20
2022-08-12T18:01:35.883Z,30.20
2022-08-12T18:04:21.887Z,30.10
2022-08-12T18:06:52.041Z,30.00
2022-08-12T18:09:20.922Z,30.00
2022-08-12T18:12:08.330Z,29.90
2022-08-12T18:14:38.257Z,29.80
2022-08-12T18:17:09.909Z,29.70
2022-08-12T18:20:05.625Z,29.60
2022-08-12T18:22:31.779Z,29.60
2022-08-12T18:25:07.213Z,29.50
2022-08-12T18:28:11.633Z,29.40
2022-08-12T18:30:45.143Z,29.30
2022-08-12T18:33:19.838Z,29.20
2022-08-12T18:35:53.738Z,29.10
2022-08-12T18:38:25.374Z,29.00
2022-08-12T18:41:17.521Z,28.90
2022-08-12T18:44:09.650Z,28.80
2022-08-12T18:46:56.936Z,28.70
2022-08-12T18:49:39.274Z,28.60
2022-08-12T18:52:11.570Z,28.50
2022-08-12T18:54:49.146Z,28.40
2022-08-12T18:58:05.772Z,28.30
2022-08-12T19:00:15.986Z,28.30
2022-08-12T19:02:44.715Z,28.20
2022-08-12T19:05:17.621Z,28.10
2022-08-12T19:08:01.290Z,28.00
2022-08-12T19:10:31.558Z,28.00
2022-08-12T19:13:23.898Z,28.00
2022-08-12T19:15:53.489Z,27.50
2022-08-12T19:18:22.120Z,27.20
2022-08-12T19:20:50.540Z,27.00
2022-08-12T19:23:21.312Z,26.80
2022-08-12T19:26:00.920Z,26.70
2022-08-12T19:28:35.547Z,26.60
2022-08-12T19:31:57.857Z,26.50
2022-08-12T19:37:20.112Z,26.30
2022-08-12T19:40:10.003Z,26.20
2022-08-12T19:42:41.802Z,26.10
2022-08-12T19:45:12.409Z,26.00
2022-08-12T19:47:41.057Z,25.90
2022-08-12T19:50:11.400Z,25.90
2022-08-12T19:52:40.002Z,25.80
2022-08-12T19:55:11.644Z,25.80
2022-08-12T19:58:02.572Z,25.70
2022-08-12T20:00:31.453Z,25.70
2022-08-12T20:03:00.351Z,25.60
2022-08-12T20:06:05.526Z,25.60
2022-08-12T20:08:20.650Z,25.60
2022-08-12T20:12:14.379Z,25.60
2022-08-12T20:13:49.382Z,25.50
2022-08-12T20:16:51.972Z,25.40
2022-08-12T20:19:16.010Z,25.30
2022-08-12T20:21:43.606Z,25.20
2022-08-12T20:24:12.221Z,25.20
2022-08-12T20:26:43.009Z,25.10
2022-08-12T20:29:13.885Z,25.00
2022-08-12T20:31:41.484Z,25.00
2022-08-12T20:34:12.216Z,24.90
2022-08-12T20:36:44.667Z,24.80
2022-08-12T20:39:35.905Z,24.80
2022-08-12T20:42:07.225Z,24.70
2022-08-12T20:44:39.826Z,24.70
2022-08-12T20:47:19.433Z,24.60
2022-08-12T20:49:55.294Z,24.60
2022-08-12T20:52:30.033Z,24.50
2022-08-12T20:54:58.037Z,24.40
2022-08-12T20:57:38.486Z,24.60
2022-08-12T21:00:18.156Z,24.70
2022-08-12T21:02:50.412Z,24.80
2022-08-12T21:06:09.693Z,24.80
2022-08-12T21:08:26.566Z,24.80
2022-08-12T21:10:54.590Z,24.80
2022-08-12T21:13:26.718Z,24.80
2022-08-12T21:15:59.008Z,24.80
2022-08-12T21:18:29.174Z,24.80
2022-08-12T21:20:58.904Z,24.80
2022-08-12T21:23:31.130Z,24.80
2022-08-12T21:26:06.081Z,24.80
2022-08-12T21:28:38.548Z,24.80
2022-08-12T21:32:34.977Z,24.80
2022-08-12T21:34:08.611Z,24.70
2022-08-12T21:36:39.927Z,24.70
2022-08-12T21:39:21.022Z,24.60
2022-08-12T21:41:54.258Z,24.60
2022-08-12T21:45:44.160Z,24.50
2022-08-12T21:47:20.749Z,24.40
2022-08-12T21:50:04.390Z,24.40
2022-08-12T21:52:35.742Z,24.30
2022-08-12T21:55:08.418Z,24.30
2022-08-12T21:57:53.136Z,24.20
2022-08-12T22:04:54.629Z,23.80
2022-08-12T22:07:28.830Z,23.80
2022-08-12T22:10:15.040Z,23.80
2022-08-12T22:12:42.998Z,23.80
2022-08-12T22:15:21.578Z,23.70
2022-08-12T22:17:49.907Z,23.70
2022-08-12T22:20:22.319Z,23.70
2022-08-12T22:22:56.917Z,23.60
2022-08-12T22:25:27.949Z,23.60
2022-08-12T22:28:13.970Z,23.50
2022-08-12T22:30:59.403Z,23.50
2022-08-12T22:33:26.291Z,23.40
2022-08-12T22:35:59.755Z,23.30
2022-08-12T22:38:29.655Z,23.30
2022-08-12T22:41:01.351Z,23.20
2022-08-12T22:43:59.599Z,23.20
2022-08-12T22:46:53.078Z,23.20
2022-08-12T22:49:36.385Z,23.20
2022-08-12T22:52:11.825Z,23.20
2022-08-12T22:55:01.443Z,23.10
2022-08-12T22:57:53.672Z,23.10
2022-08-12T23:00:24.386Z,23.10
2022-08-12T23:03:03.321Z,23.00
2022-08-12T23:05:57.388Z,23.00
2022-08-12T23:08:29.665Z,23.00
2022-08-12T23:10:59.206Z,22.90
2022-08-12T23:13:44.793Z,22.90
2022-08-12T23:16:18.303Z,22.90
2022-08-12T23:18:59.006Z,22.80
2022-08-12T23:21:26.906Z,22.80
2022-08-12T23:24:14.391Z,22.80
2022-08-12T23:27:03.182Z,22.80
2022-08-12T23:29:43.377Z,22.80
2022-08-12T23:32:35.606Z,22.80
2022-08-12T23:35:18.863Z,22.70
2022-08-12T23:37:53.745Z,22.70
2022-08-12T23:40:22.463Z,22.70
2022-08-12T23:42:54.893Z,22.70
2022-08-12T23:45:30.897Z,22.60
2022-08-12T23:48:00.700Z,22.60
2022-08-12T23:50:33.928Z,22.50
2022-08-12T23:53:05.640Z,22.40
2022-08-12T23:55:40.550Z,22.40
2022-08-12T23:58:21.046Z,22.40
